Time;durP1;ratioP1;P1;durP2;ratioP2;P2;SDS_P1;SDS_P2;PMS_P1;PMS_P2;Temp;Humidity;BMP_temperature;BMP_pressure;BME280_temperature;BME280_humidity;BME280_pressure;Samples;Min_cycle;Max_cycle;Signal;HPM_P1;HPM_P2
2022/02/14 00:00:46;;;;;;;;;3.67;3.67;;;;;;;;5056252;28;9359;-80
2022/02/14 00:03:13;;;;;;;;;2.00;2.00;;;;;;;;5054436;28;9424;-81
2022/02/14 00:05:41;;;;;;;;;2.67;2.67;;;;;;;;5057117;28;9329;-80
2022/02/14 00:08:09;;;;;;;;;4.00;3.00;;;;;;;;5039096;28;9349;-81
2022/02/14 00:10:36;;;;;;;;;3.67;3.67;;;;;;;;5068670;28;9341;-81
2022/02/14 00:13:03;;;;;;;;;5.67;3.00;;;;;;;;5060899;28;9380;-79
2022/02/14 00:15:31;;;;;;;;;6.00;3.00;;;;;;;;5056773;28;9592;-80
2022/02/14 00:18:00;;;;;;;;;4.67;3.67;;;;;;;;5035748;28;9330;-80
2022/02/14 00:20:29;;;;;;;;;4.33;2.33;;;;;;;;5055305;28;9277;-80
2022/02/14 00:22:57;;;;;;;;;2.00;2.00;;;;;;;;5031358;28;9254;-80
2022/02/14 00:25:24;;;;;;;;;4.00;4.00;;;;;;;;5055727;28;9342;-80
2022/02/14 00:27:52;;;;;;;;;4.00;4.00;;;;;;;;5041993;28;9323;-81
2022/02/14 00:30:19;;;;;;;;;6.00;3.00;;;;;;;;5038777;28;9275;-80
2022/02/14 00:32:46;;;;;;;;;3.00;3.00;;;;;;;;5063746;28;9342;-80
2022/02/14 00:35:15;;;;;;;;;3.00;1.00;;;;;;;;5050055;28;9247;-82
2022/02/14 00:37:42;;;;;;;;;4.00;4.00;;;;;;;;5053773;28;9198;-81
2022/02/14 00:40:12;;;;;;;;;2.00;2.00;;;;;;;;5053933;28;10005;-79
2022/02/14 00:42:39;;;;;;;;;2.00;2.00;;;;;;;;5076415;28;9193;-81
2022/02/14 00:45:07;;;;;;;;;2.67;2.67;;;;;;;;5055171;28;9256;-81
2022/02/14 00:47:35;;;;;;;;;3.00;3.00;;;;;;;;5054741;28;9399;-81
2022/02/14 00:50:02;;;;;;;;;6.00;3.00;;;;;;;;5036335;28;9352;-80
2022/02/14 00:52:31;;;;;;;;;3.33;2.00;;;;;;;;5058690;28;9476;-80
2022/02/14 00:54:58;;;;;;;;;2.00;2.00;;;;;;;;5059365;28;9307;-81
2022/02/14 00:57:26;;;;;;;;;2.33;2.33;;;;;;;;5061143;28;9297;-81
2022/02/14 00:59:53;;;;;;;;;2.67;2.67;;;;;;;;5057934;28;9274;-81
2022/02/14 01:02:20;;;;;;;;;5.00;2.33;;;;;;;;5047650;28;9305;-81
2022/02/14 01:04:47;;;;;;;;;3.00;3.00;;;;;;;;5050416;28;10011;-81
2022/02/14 01:07:15;;;;;;;;;4.00;4.00;;;;;;;;5052391;28;9275;-80
2022/02/14 01:09:43;;;;;;;;;3.00;3.00;;;;;;;;5050667;28;9367;-81
2022/02/14 01:12:11;;;;;;;;;3.00;3.00;;;;;;;;5050777;28;9396;-81
2022/02/14 01:14:38;;;;;;;;;4.00;2.00;;;;;;;;5049355;28;9323;-80
2022/02/14 01:17:06;;;;;;;;;6.00;2.67;;;;;;;;5048302;28;9364;-80
2022/02/14 01:19:34;;;;;;;;;2.33;2.33;;;;;;;;5045441;28;9318;-79
2022/02/14 01:22:01;;;;;;;;;1.67;1.67;;;;;;;;5053576;28;9336;-79
2022/02/14 01:24:29;;;;;;;;;0.00;0.00;;;;;;;;5030831;28;9348;-79
2022/02/14 01:26:58;;;;;;;;;3.00;1.25;;;;;;;;5064592;28;9166;-79
2022/02/14 01:29:25;;;;;;;;;3.00;3.00;;;;;;;;5061976;28;9506;-80
2022/02/14 01:31:52;;;;;;;;;2.33;2.33;;;;;;;;5064342;28;9811;-79
2022/02/14 01:34:19;;;;;;;;;3.75;2.00;;;;;;;;5055537;28;9385;-80
2022/02/14 01:36:47;;;;;;;;;7.50;4.00;;;;;;;;5054286;28;9507;-79
2022/02/14 01:39:14;;;;;;;;;4.67;3.00;;;;;;;;5049340;28;9464;-80
2022/02/14 01:41:42;;;;;;;;;3.33;3.00;;;;;;;;5052821;28;9607;-79
2022/02/14 01:44:13;;;;;;;;;4.00;3.00;;;;;;;;5059594;28;9416;-79
2022/02/14 01:46:41;;;;;;;;;4.33;3.00;;;;;;;;5050034;28;9425;-80
2022/02/14 01:49:08;;;;;;;;;2.00;2.00;;;;;;;;5045593;28;9416;-80
2022/02/14 01:51:36;;;;;;;;;3.00;3.00;;;;;;;;5037633;28;9461;-80
2022/02/14 01:54:03;;;;;;;;;2.00;2.00;;;;;;;;5043604;28;10107;-79
2022/02/14 01:56:30;;;;;;;;;2.00;2.00;;;;;;;;5057910;28;9267;-80
2022/02/14 01:58:58;;;;;;;;;3.00;3.00;;;;;;;;5048231;28;9406;-80
2022/02/14 02:01:26;;;;;;;;;2.67;2.00;;;;;;;;5060342;28;9368;-80
2022/02/14 02:03:54;;;;;;;;;2.33;2.33;;;;;;;;5060781;28;10262;-80
2022/02/14 02:06:21;;;;;;;;;4.00;2.00;;;;;;;;5032832;28;9260;-81
2022/02/14 02:08:48;;;;;;;;;2.67;2.67;;;;;;;;5056141;28;9254;-81
2022/02/14 02:14:00;;;;;;;;;2.00;2.00;;;;;;;;5054838;28;9377;-80
2022/02/14 02:16:29;;;;;;;;;4.00;2.00;;;;;;;;5061782;28;9345;-80
2022/02/14 02:18:56;;;;;;;;;6.00;3.00;;;;;;;;5063770;28;9310;-79
2022/02/14 02:21:24;;;;;;;;;5.67;3.00;;;;;;;;5064947;28;9289;-80
2022/02/14 02:23:51;;;;;;;;;4.67;2.00;;;;;;;;5054214;28;9398;-80
2022/02/14 02:26:20;;;;;;;;;7.00;3.00;;;;;;;;5052802;28;9256;-81
2022/02/14 02:28:47;;;;;;;;;4.00;4.00;;;;;;;;5060496;28;9447;-80
2022/02/14 02:31:14;;;;;;;;;3.67;3.67;;;;;;;;5072769;28;9166;-80
2022/02/14 02:33:41;;;;;;;;;2.67;2.67;;;;;;;;5048693;28;9433;-81
2022/02/14 02:36:09;;;;;;;;;4.00;3.00;;;;;;;;5044574;28;9376;-81
2022/02/14 02:38:36;;;;;;;;;4.00;3.00;;;;;;;;5050439;28;9342;-80
2022/02/14 02:41:03;;;;;;;;;3.33;3.00;;;;;;;;5033793;28;9417;-79
2022/02/14 02:43:32;;;;;;;;;11.33;3.67;;;;;;;;5062496;28;9408;-81
2022/02/14 02:45:59;;;;;;;;;5.67;4.00;;;;;;;;5053258;28;9533;-80
2022/02/14 02:48:27;;;;;;;;;4.00;3.00;;;;;;;;5070590;28;10172;-82
2022/02/14 02:51:03;;;;;;;;;2.67;2.00;;;;;;;;5069893;28;9506;-81
2022/02/14 02:53:30;;;;;;;;;3.33;3.33;;;;;;;;5056972;28;9365;-81
2022/02/14 02:55:58;;;;;;;;;2.00;2.00;;;;;;;;5044486;28;10053;-80
2022/02/14 02:58:25;;;;;;;;;6.00;3.00;;;;;;;;5048764;28;9254;-81
2022/02/14 03:00:54;;;;;;;;;3.67;3.00;;;;;;;;5059886;28;9390;-81
2022/02/14 03:03:22;;;;;;;;;3.00;3.00;;;;;;;;5063593;28;9358;-81
2022/02/14 03:05:49;;;;;;;;;6.00;3.33;;;;;;;;5042126;28;10135;-81
2022/02/14 03:08:16;;;;;;;;;3.00;3.00;;;;;;;;5059816;28;9362;-81
2022/02/14 03:10:43;;;;;;;;;2.67;2.67;;;;;;;;5055390;28;9202;-81
2022/02/14 03:13:11;;;;;;;;;4.00;4.00;;;;;;;;5050332;28;9193;-81
2022/02/14 03:15:38;;;;;;;;;3.00;3.00;;;;;;;;5043880;28;9199;-81
2022/02/14 03:18:07;;;;;;;;;2.00;2.00;;;;;;;;5056085;28;9258;-80
2022/02/14 03:20:36;;;;;;;;;4.33;1.33;;;;;;;;5043965;28;9199;-80
2022/02/14 03:23:03;;;;;;;;;4.00;2.00;;;;;;;;5060890;28;9429;-80
2022/02/14 03:25:31;;;;;;;;;4.33;4.33;;;;;;;;5057149;28;9328;-80
2022/02/14 03:27:58;;;;;;;;;2.33;2.33;;;;;;;;5062210;28;9271;-79
2022/02/14 03:30:25;;;;;;;;;2.00;2.00;;;;;;;;5058501;28;9242;-80
2022/02/14 03:32:53;;;;;;;;;3.67;3.67;;;;;;;;5057167;28;9222;-80
2022/02/14 03:35:21;;;;;;;;;3.67;2.67;;;;;;;;5046275;28;9094;-79
2022/02/14 03:37:49;;;;;;;;;3.00;3.00;;;;;;;;5043148;28;9324;-79
2022/02/14 03:40:17;;;;;;;;;2.00;2.00;;;;;;;;5037905;28;9237;-80
2022/02/14 03:42:44;;;;;;;;;1.33;1.33;;;;;;;;5043167;28;9124;-81
2022/02/14 03:45:11;;;;;;;;;4.00;2.67;;;;;;;;5055093;28;9081;-80
2022/02/14 03:47:39;;;;;;;;;2.33;2.33;;;;;;;;5052698;28;9195;-79
2022/02/14 03:50:07;;;;;;;;;2.00;2.00;;;;;;;;5060097;28;9892;-81
2022/02/14 03:52:36;;;;;;;;;2.00;2.00;;;;;;;;5059899;28;9226;-81
2022/02/14 03:55:03;;;;;;;;;4.00;2.00;;;;;;;;5059049;28;9316;-81
2022/02/14 03:57:31;;;;;;;;;2.33;2.33;;;;;;;;5068419;28;9383;-80
2022/02/14 03:59:58;;;;;;;;;3.00;3.00;;;;;;;;5078115;28;9336;-81
2022/02/14 04:02:25;;;;;;;;;3.25;3.00;;;;;;;;5055959;28;9296;-80
2022/02/14 04:04:55;;;;;;;;;3.00;3.00;;;;;;;;5039099;28;9434;-80
2022/02/14 04:07:23;;;;;;;;;2.75;2.75;;;;;;;;5064738;28;9492;-79
2022/02/14 04:09:51;;;;;;;;;4.00;2.50;;;;;;;;5053165;28;9642;-81
2022/02/14 04:12:19;;;;;;;;;2.50;2.50;;;;;;;;5045513;28;9656;-80
2022/02/14 04:14:46;;;;;;;;;4.00;4.00;;;;;;;;5053052;28;9628;-80
2022/02/14 04:17:13;;;;;;;;;2.75;2.75;;;;;;;;5062618;28;9861;-80
2022/02/14 04:19:41;;;;;;;;;2.00;2.00;;;;;;;;5056158;28;9492;-79
2022/02/14 04:22:08;;;;;;;;;6.00;4.00;;;;;;;;5056212;28;9626;-76
2022/02/14 04:24:36;;;;;;;;;1.67;1.67;;;;;;;;5063117;28;9542;-81
2022/02/14 04:27:05;;;;;;;;;0.00;0.00;;;;;;;;5062990;28;9471;-80
2022/02/14 04:29:33;;;;;;;;;0.00;0.00;;;;;;;;5059613;28;9506;-80
2022/02/14 04:32:00;;;;;;;;;0.00;0.00;;;;;;;;5070437;28;9485;-77
2022/02/14 04:34:27;;;;;;;;;0.00;0.00;;;;;;;;5056607;28;9566;-79
2022/02/14 04:36:54;;;;;;;;;0.00;0.00;;;;;;;;5058862;28;9640;-80
2022/02/14 04:39:22;;;;;;;;;0.00;0.00;;;;;;;;5063961;28;10400;-80
2022/02/14 04:41:49;;;;;;;;;0.00;0.00;;;;;;;;5057119;28;9878;-80
2022/02/14 04:44:18;;;;;;;;;0.00;0.00;;;;;;;;5075084;28;9765;-80
2022/02/14 04:46:45;;;;;;;;;0.00;0.00;;;;;;;;5060866;28;10041;-80
2022/02/14 04:49:13;;;;;;;;;0.00;0.00;;;;;;;;5056942;28;9984;-79
2022/02/14 04:51:40;;;;;;;;;0.00;0.00;;;;;;;;5048568;28;9972;-79
2022/02/14 04:54:07;;;;;;;;;0.00;0.00;;;;;;;;5058569;28;10000;-80
2022/02/14 04:56:34;;;;;;;;;0.00;0.00;;;;;;;;5056253;28;10112;-80
2022/02/14 04:59:02;;;;;;;;;0.50;0.00;;;;;;;;5066298;28;10385;-80
2022/02/14 05:01:30;;;;;;;;;0.00;0.00;;;;;;;;5058387;28;10121;-80
2022/02/14 05:03:58;;;;;;;;;0.00;0.00;;;;;;;;5048470;28;10262;-81
2022/02/14 05:06:25;;;;;;;;;0.00;0.00;;;;;;;;5050211;28;10229;-79
2022/02/14 05:08:52;;;;;;;;;0.00;0.00;;;;;;;;5069776;28;10126;-80
2022/02/14 05:11:19;;;;;;;;;0.75;0.00;;;;;;;;5037974;28;10188;-80
2022/02/14 05:13:47;;;;;;;;;0.00;0.00;;;;;;;;5058413;28;10260;-80
2022/02/14 05:16:14;;;;;;;;;0.00;0.00;;;;;;;;5061629;28;10156;-79
2022/02/14 05:18:43;;;;;;;;;0.00;0.00;;;;;;;;5060168;28;10235;-79
2022/02/14 05:21:10;;;;;;;;;0.00;0.00;;;;;;;;5051016;28;10312;-79
2022/02/14 05:23:37;;;;;;;;;0.00;0.00;;;;;;;;5031054;28;10235;-79
2022/02/14 05:26:04;;;;;;;;;0.00;0.00;;;;;;;;5060232;28;10221;-79
2022/02/14 05:28:32;;;;;;;;;0.00;0.00;;;;;;;;5057664;28;10282;-78
2022/02/14 05:30:59;;;;;;;;;0.00;0.00;;;;;;;;5052004;28;10175;-78
2022/02/14 05:33:27;;;;;;;;;0.00;0.00;;;;;;;;5046676;28;10375;-80
2022/02/14 05:35:55;;;;;;;;;0.00;0.00;;;;;;;;5055783;28;10441;-78
2022/02/14 05:38:23;;;;;;;;;0.00;0.00;;;;;;;;5076909;28;10318;-80
2022/02/14 05:40:50;;;;;;;;;3.00;0.00;;;;;;;;5054235;28;10294;-78
2022/02/14 05:43:18;;;;;;;;;0.00;0.00;;;;;;;;5055012;28;10378;-79
2022/02/14 05:45:45;;;;;;;;;0.00;0.00;;;;;;;;5054620;28;10464;-80
2022/02/14 05:48:14;;;;;;;;;0.00;0.00;;;;;;;;5054914;28;10310;-79
2022/02/14 05:50:41;;;;;;;;;0.50;0.00;;;;;;;;5053475;28;10440;-79
2022/02/14 05:53:10;;;;;;;;;0.00;0.00;;;;;;;;5057947;28;10484;-79
2022/02/14 05:55:37;;;;;;;;;0.00;0.00;;;;;;;;5059123;28;11284;-79
2022/02/14 05:58:05;;;;;;;;;0.00;0.00;;;;;;;;5037222;28;10456;-79
2022/02/14 06:00:32;;;;;;;;;0.00;0.00;;;;;;;;5058635;28;10350;-79
2022/02/14 06:02:59;;;;;;;;;0.00;0.00;;;;;;;;5066585;28;10384;-79
2022/02/14 06:05:27;;;;;;;;;0.00;0.00;;;;;;;;5057321;28;10441;-78
2022/02/14 06:07:56;;;;;;;;;0.00;0.00;;;;;;;;5073154;28;10371;-77
2022/02/14 06:10:25;;;;;;;;;0.00;0.00;;;;;;;;5058496;28;11836;-80
2022/02/14 06:12:53;;;;;;;;;0.00;0.00;;;;;;;;5067078;28;10399;-79
2022/02/14 06:15:20;;;;;;;;;0.00;0.00;;;;;;;;5060671;28;10484;-81
2022/02/14 06:17:47;;;;;;;;;1.00;0.00;;;;;;;;5075124;28;10377;-78
2022/02/14 06:20:15;;;;;;;;;0.00;0.00;;;;;;;;5056666;28;10446;-79
2022/02/14 06:22:42;;;;;;;;;0.00;0.00;;;;;;;;5062166;28;10406;-75
2022/02/14 06:25:11;;;;;;;;;0.00;0.00;;;;;;;;5060602;28;10368;-77
2022/02/14 06:27:39;;;;;;;;;0.00;0.00;;;;;;;;5057394;28;10349;-77
2022/02/14 06:30:08;;;;;;;;;0.00;0.00;;;;;;;;5068395;28;10217;-76
2022/02/14 06:32:35;;;;;;;;;0.00;0.00;;;;;;;;5041176;28;10361;-77
2022/02/14 06:35:04;;;;;;;;;0.00;0.00;;;;;;;;5061424;28;10290;-78
2022/02/14 06:37:31;;;;;;;;;0.00;0.00;;;;;;;;5057234;28;10405;-76
2022/02/14 06:39:58;;;;;;;;;0.00;0.00;;;;;;;;5058283;28;10314;-75
2022/02/14 06:42:26;;;;;;;;;0.00;0.00;;;;;;;;5063997;28;10413;-77
2022/02/14 06:44:56;;;;;;;;;1.00;0.00;;;;;;;;5037159;28;10347;-82
2022/02/14 06:47:23;;;;;;;;;0.00;0.00;;;;;;;;5069340;28;10462;-76
2022/02/14 06:49:50;;;;;;;;;0.00;0.00;;;;;;;;5081287;28;10394;-77
2022/02/14 06:52:18;;;;;;;;;1.00;0.00;;;;;;;;5063983;28;10364;-76
2022/02/14 06:54:45;;;;;;;;;0.00;0.00;;;;;;;;5060751;28;11094;-77
2022/02/14 06:57:13;;;;;;;;;0.00;0.00;;;;;;;;5061567;28;10410;-77
2022/02/14 06:59:40;;;;;;;;;0.00;0.00;;;;;;;;5061680;28;10388;-78
2022/02/14 07:02:10;;;;;;;;;0.75;0.00;;;;;;;;5060669;28;10264;-78
2022/02/14 07:04:37;;;;;;;;;0.00;0.00;;;;;;;;5062065;28;10316;-78
2022/02/14 07:07:05;;;;;;;;;0.00;0.00;;;;;;;;5062655;28;10468;-78
2022/02/14 07:09:32;;;;;;;;;1.50;0.00;;;;;;;;5063454;28;10536;-79
2022/02/14 07:11:59;;;;;;;;;0.75;0.00;;;;;;;;5059963;28;10389;-78
2022/02/14 07:14:26;;;;;;;;;1.00;0.00;;;;;;;;5059408;28;10496;-78
2022/02/14 07:16:54;;;;;;;;;0.50;0.50;;;;;;;;5057592;28;10335;-78
2022/02/14 07:19:22;;;;;;;;;1.75;0.00;;;;;;;;5059854;28;10407;-78
2022/02/14 07:21:50;;;;;;;;;0.00;0.00;;;;;;;;5060280;28;10233;-78
2022/02/14 07:24:17;;;;;;;;;0.00;0.00;;;;;;;;5043235;28;10308;-77
2022/02/14 07:26:45;;;;;;;;;0.00;0.00;;;;;;;;5062302;28;10310;-78
2022/02/14 07:29:12;;;;;;;;;0.00;0.00;;;;;;;;5043077;28;10237;-79
2022/02/14 07:31:41;;;;;;;;;0.00;0.00;;;;;;;;5051226;28;10289;-78
2022/02/14 07:34:09;;;;;;;;;0.00;0.00;;;;;;;;5056145;28;10257;-79
2022/02/14 07:36:38;;;;;;;;;0.00;0.00;;;;;;;;5059026;28;10386;-79
2022/02/14 07:39:06;;;;;;;;;0.00;0.00;;;;;;;;5059930;28;10309;-79
2022/02/14 07:41:34;;;;;;;;;0.00;0.00;;;;;;;;5057223;28;10363;-77
2022/02/14 07:44:01;;;;;;;;;0.00;0.00;;;;;;;;5065066;28;10332;-82
2022/02/14 07:46:28;;;;;;;;;0.00;0.00;;;;;;;;5058686;28;10339;-79
2022/02/14 07:48:56;;;;;;;;;0.00;0.00;;;;;;;;5061573;28;10284;-74
2022/02/14 07:51:25;;;;;;;;;0.50;0.00;;;;;;;;5061415;28;10287;-80
2022/02/14 07:53:54;;;;;;;;;2.50;0.00;;;;;;;;5040172;28;10390;-75
2022/02/14 07:56:22;;;;;;;;;0.00;0.00;;;;;;;;5060279;28;10400;-77
2022/02/14 07:58:50;;;;;;;;;0.00;0.00;;;;;;;;5057589;28;10373;-77
2022/02/14 08:01:18;;;;;;;;;0.00;0.00;;;;;;;;5057696;28;10347;-77
2022/02/14 08:03:45;;;;;;;;;1.00;0.00;;;;;;;;5057552;28;10497;-78
2022/02/14 08:06:12;;;;;;;;;0.00;0.00;;;;;;;;5062380;28;10325;-77
2022/02/14 08:08:40;;;;;;;;;0.00;0.00;;;;;;;;5059427;28;10500;-79
2022/02/14 08:11:09;;;;;;;;;0.00;0.00;;;;;;;;5034254;28;10321;-79
2022/02/14 08:13:36;;;;;;;;;0.00;0.00;;;;;;;;5061577;28;10259;-80
2022/02/14 08:16:04;;;;;;;;;0.00;0.00;;;;;;;;5059439;28;10311;-79
2022/02/14 08:18:31;;;;;;;;;0.00;0.00;;;;;;;;5061394;28;10360;-80
2022/02/14 08:20:58;;;;;;;;;0.00;0.00;;;;;;;;5077256;28;10447;-82
2022/02/14 08:23:26;;;;;;;;;0.00;0.00;;;;;;;;5048634;28;10468;-75
2022/02/14 08:25:53;;;;;;;;;1.00;0.00;;;;;;;;5060832;28;10264;-86
2022/02/14 08:28:23;;;;;;;;;1.25;0.25;;;;;;;;5058779;28;10356;-80
2022/02/14 08:30:50;;;;;;;;;0.00;0.00;;;;;;;;5064600;28;10097;-89
2022/02/14 08:33:18;;;;;;;;;0.00;0.00;;;;;;;;5048853;28;10276;-85
2022/02/14 08:35:45;;;;;;;;;0.25;0.25;;;;;;;;5076402;28;10184;-80
2022/02/14 08:38:15;;;;;;;;;0.00;0.00;;;;;;;;5061540;28;10178;-84
2022/02/14 08:40:42;;;;;;;;;0.00;0.00;;;;;;;;5051236;28;10257;-87
2022/02/14 08:43:10;;;;;;;;;0.00;0.00;;;;;;;;5065759;28;10199;-86
2022/02/14 08:45:39;;;;;;;;;6.00;0.00;;;;;;;;5066784;28;10268;-84
2022/02/14 08:48:06;;;;;;;;;1.25;0.25;;;;;;;;5066348;28;10185;-86
2022/02/14 08:50:34;;;;;;;;;0.00;0.00;;;;;;;;5067707;28;10256;-85
2022/02/14 08:53:03;;;;;;;;;0.00;0.00;;;;;;;;5063652;28;10341;-85
2022/02/14 08:55:30;;;;;;;;;1.00;1.00;;;;;;;;5044232;28;10115;-85
2022/02/14 08:57:58;;;;;;;;;0.00;0.00;;;;;;;;5068109;28;10168;-88
2022/02/14 09:00:25;;;;;;;;;0.75;0.75;;;;;;;;5065351;28;10085;-87
2022/02/14 09:02:54;;;;;;;;;0.00;0.00;;;;;;;;5067163;28;10286;-86
2022/02/14 09:05:23;;;;;;;;;2.00;0.25;;;;;;;;5066135;28;10187;-86
2022/02/14 09:07:50;;;;;;;;;2.75;0.00;;;;;;;;5067551;28;10183;-85
2022/02/14 09:10:18;;;;;;;;;0.00;0.00;;;;;;;;5045105;28;10090;-87
2022/02/14 09:12:46;;;;;;;;;0.00;0.00;;;;;;;;5056652;28;10033;-87
2022/02/14 09:15:13;;;;;;;;;3.00;0.00;;;;;;;;5063976;28;10140;-87
2022/02/14 09:17:40;;;;;;;;;0.00;0.00;;;;;;;;5055688;28;9876;-87
2022/02/14 09:20:11;;;;;;;;;0.00;0.00;;;;;;;;5067441;28;10029;-86
2022/02/14 09:22:38;;;;;;;;;1.75;0.00;;;;;;;;5066265;28;9877;-87
2022/02/14 09:25:08;;;;;;;;;0.00;0.00;;;;;;;;5067091;28;9942;-87
2022/02/14 09:27:35;;;;;;;;;0.00;0.00;;;;;;;;5059299;28;9914;-88
2022/02/14 09:30:03;;;;;;;;;0.00;0.00;;;;;;;;5063612;28;9781;-88
2022/02/14 09:32:30;;;;;;;;;2.00;0.00;;;;;;;;5065898;28;9798;-87
2022/02/14 09:34:58;;;;;;;;;0.00;0.00;;;;;;;;5052714;28;9912;-87
2022/02/14 09:37:26;;;;;;;;;0.00;0.00;;;;;;;;5067112;28;9949;-85
2022/02/14 09:39:54;;;;;;;;;2.00;0.00;;;;;;;;5053626;28;9650;-86
2022/02/14 09:42:21;;;;;;;;;0.00;0.00;;;;;;;;5066226;28;9875;-87
2022/02/14 09:44:48;;;;;;;;;0.75;0.00;;;;;;;;5060308;28;9864;-86
2022/02/14 09:47:16;;;;;;;;;0.50;0.50;;;;;;;;5066514;28;9800;-87
2022/02/14 09:49:43;;;;;;;;;0.00;0.00;;;;;;;;5048986;28;9969;-86
2022/02/14 09:52:12;;;;;;;;;0.00;0.00;;;;;;;;5047666;28;9870;-86
2022/02/14 09:54:40;;;;;;;;;0.00;0.00;;;;;;;;5066391;28;9869;-85
2022/02/14 09:57:08;;;;;;;;;1.00;1.00;;;;;;;;5065564;28;9923;-86
2022/02/14 09:59:37;;;;;;;;;0.00;0.00;;;;;;;;5066402;28;9709;-88
2022/02/14 10:02:19;;;;;;;;;0.50;0.50;;;;;;;;5052652;28;9738;-88
2022/02/14 10:05:07;;;;;;;;;1.00;1.00;;;;;;;;5054828;28;9765;-85
2022/02/14 10:07:43;;;;;;;;;1.00;1.00;;;;;;;;5066535;28;9779;-84
2022/02/14 10:10:16;;;;;;;;;0.25;0.25;;;;;;;;5055794;28;9655;-85
2022/02/14 10:12:45;;;;;;;;;1.00;0.50;;;;;;;;5065661;28;9614;-86
2022/02/14 10:15:13;;;;;;;;;1.75;0.00;;;;;;;;5065555;28;9512;-85
2022/02/14 10:17:42;;;;;;;;;2.00;0.00;;;;;;;;5047440;28;9634;-85
2022/02/14 10:20:10;;;;;;;;;0.00;0.00;;;;;;;;5060884;28;9466;-85
2022/02/14 10:22:55;;;;;;;;;0.25;0.25;;;;;;;;5047615;28;9663;-85
2022/02/14 10:25:32;;;;;;;;;0.25;0.00;;;;;;;;5065918;28;9402;-85
2022/02/14 10:28:31;;;;;;;;;0.00;0.00;;;;;;;;5047934;28;9404;-86
2022/02/14 10:31:00;;;;;;;;;1.00;1.00;;;;;;;;5033127;28;9300;-84
2022/02/14 10:33:47;;;;;;;;;0.00;0.00;;;;;;;;5060470;28;9542;-86
2022/02/14 10:36:14;;;;;;;;;0.00;0.00;;;;;;;;5063604;28;9370;-85
2022/02/14 10:38:41;;;;;;;;;0.00;0.00;;;;;;;;5065599;28;9495;-86
2022/02/14 10:41:14;;;;;;;;;1.25;0.00;;;;;;;;5046487;28;9629;-84
2022/02/14 10:43:42;;;;;;;;;0.00;0.00;;;;;;;;5065554;28;9535;-85
2022/02/14 10:46:10;;;;;;;;;0.00;0.00;;;;;;;;5047207;28;9356;-86
2022/02/14 10:48:40;;;;;;;;;0.00;0.00;;;;;;;;5073670;28;9500;-86
2022/02/14 10:51:10;;;;;;;;;3.00;0.00;;;;;;;;5068913;28;9327;-84
2022/02/14 10:53:49;;;;;;;;;0.00;0.00;;;;;;;;5063047;28;9400;-84
2022/02/14 10:56:19;;;;;;;;;0.33;0.33;;;;;;;;5065608;28;9432;-86
2022/02/14 10:58:47;;;;;;;;;0.33;0.33;;;;;;;;5064908;28;9237;-84
2022/02/14 11:01:16;;;;;;;;;1.67;0.00;;;;;;;;5063697;28;9212;-83
2022/02/14 11:03:45;;;;;;;;;0.00;0.00;;;;;;;;5064923;28;9853;-84
2022/02/14 11:06:13;;;;;;;;;0.00;0.00;;;;;;;;5063930;28;9240;-84
2022/02/14 11:08:42;;;;;;;;;2.00;0.00;;;;;;;;5064416;28;9313;-84
2022/02/14 11:11:11;;;;;;;;;0.00;0.00;;;;;;;;5051763;28;9194;-84
2022/02/14 11:13:40;;;;;;;;;1.33;0.00;;;;;;;;5064800;28;8967;-83
2022/02/14 11:16:09;;;;;;;;;0.00;0.00;;;;;;;;5063454;28;8947;-84
2022/02/14 11:18:40;;;;;;;;;1.50;0.00;;;;;;;;5064105;28;8898;-83
2022/02/14 11:21:08;;;;;;;;;0.00;0.00;;;;;;;;5064866;28;8967;-83
2022/02/14 11:23:42;;;;;;;;;0.00;0.00;;;;;;;;5063520;28;9784;-84
2022/02/14 11:26:16;;;;;;;;;0.50;0.00;;;;;;;;5045458;28;8876;-83
2022/02/14 11:28:49;;;;;;;;;2.33;0.00;;;;;;;;5063260;28;9626;-85
2022/02/14 11:31:20;;;;;;;;;0.00;0.00;;;;;;;;5064686;28;8902;-84
2022/02/14 11:33:55;;;;;;;;;2.00;0.00;;;;;;;;5063743;28;8965;-86
2022/02/14 11:36:23;;;;;;;;;1.00;0.00;;;;;;;;5059725;28;9144;-87
2022/02/14 11:38:53;;;;;;;;;0.00;0.00;;;;;;;;5065070;28;9263;-86
2022/02/14 11:41:29;;;;;;;;;3.00;0.00;;;;;;;;5063562;28;9298;-85
2022/02/14 11:44:17;;;;;;;;;1.00;1.00;;;;;;;;5054478;28;9416;-85
2022/02/14 11:46:45;;;;;;;;;0.33;0.33;;;;;;;;5051262;28;9336;-85
2022/02/14 11:49:20;;;;;;;;;1.00;0.00;;;;;;;;5064470;28;9428;-85
2022/02/14 11:51:53;;;;;;;;;1.00;0.33;;;;;;;;5064897;28;9519;-86
2022/02/14 11:54:41;;;;;;;;;0.00;0.00;;;;;;;;5063026;28;9506;-85
2022/02/14 11:57:31;;;;;;;;;1.00;1.00;;;;;;;;5063774;28;9337;-85
2022/02/14 12:00:30;;;;;;;;;1.00;0.00;;;;;;;;5061937;28;9199;-83
2022/02/14 12:03:13;;;;;;;;;0.33;0.00;;;;;;;;5007883;28;9070;-83
2022/02/14 12:05:46;;;;;;;;;0.33;0.00;;;;;;;;5060340;28;9220;-83
2022/02/14 12:08:14;;;;;;;;;0.00;0.00;;;;;;;;5066804;28;9039;-83
2022/02/14 12:10:46;;;;;;;;;1.00;0.00;;;;;;;;5049678;28;8947;-83
2022/02/14 12:13:16;;;;;;;;;0.67;0.00;;;;;;;;5067927;28;8957;-85
2022/02/14 12:21:22;;;;;;;;;0.33;0.33;;;;;;;;5067201;28;8918;-82
2022/02/14 12:23:51;;;;;;;;;1.75;0.00;;;;;;;;5063031;28;8986;-83
2022/02/14 12:26:19;;;;;;;;;0.00;0.00;;;;;;;;5074803;28;8887;-83
2022/02/14 12:29:31;;;;;;;;;1.00;1.00;;;;;;;;5066600;28;8896;-83
2022/02/14 12:31:45;;;;;;;;;0.00;0.00;;;;;;;;5067354;28;8842;-83
2022/02/14 12:34:12;;;;;;;;;1.00;1.00;;;;;;;;5065912;28;8876;-83
2022/02/14 12:36:40;;;;;;;;;2.50;1.00;;;;;;;;5067121;28;8972;-83
2022/02/14 12:39:07;;;;;;;;;0.00;0.00;;;;;;;;5067821;28;8860;-83
2022/02/14 12:41:35;;;;;;;;;0.00;0.00;;;;;;;;5066591;28;8852;-83
2022/02/14 12:44:04;;;;;;;;;0.00;0.00;;;;;;;;5067553;28;8856;-83
2022/02/14 12:46:32;;;;;;;;;0.00;0.00;;;;;;;;5047613;28;9508;-83
2022/02/14 12:49:09;;;;;;;;;0.00;0.00;;;;;;;;5049960;28;9037;-82
2022/02/14 12:51:37;;;;;;;;;1.00;1.00;;;;;;;;5065630;28;8876;-83
2022/02/14 12:54:06;;;;;;;;;0.00;0.00;;;;;;;;5066839;28;8864;-83
2022/02/14 12:56:35;;;;;;;;;0.00;0.00;;;;;;;;5067260;28;8864;-83
2022/02/14 12:59:04;;;;;;;;;0.00;0.00;;;;;;;;5066847;28;9002;-83
2022/02/14 13:01:34;;;;;;;;;1.50;0.00;;;;;;;;5061433;28;8828;-83
2022/02/14 13:04:04;;;;;;;;;0.00;0.00;;;;;;;;5065998;28;8888;-84
2022/02/14 13:06:40;;;;;;;;;1.25;0.00;;;;;;;;5049037;28;8884;-84
2022/02/14 13:09:21;;;;;;;;;0.50;0.00;;;;;;;;5057627;28;8876;-83
2022/02/14 13:11:49;;;;;;;;;0.00;0.00;;;;;;;;5066424;28;8953;-83
2022/02/14 13:14:34;;;;;;;;;0.00;0.00;;;;;;;;5067305;28;8852;-84
2022/02/14 13:17:02;;;;;;;;;0.00;0.00;;;;;;;;5064251;28;8875;-84
2022/02/14 13:19:33;;;;;;;;;0.00;0.00;;;;;;;;5067050;28;8900;-83
2022/02/14 13:22:00;;;;;;;;;2.00;0.00;;;;;;;;5063811;28;8884;-84
2022/02/14 13:24:29;;;;;;;;;0.00;0.00;;;;;;;;5056135;28;8879;-83
2022/02/14 13:27:06;;;;;;;;;0.00;0.00;;;;;;;;5066101;28;8877;-84
2022/02/14 13:29:42;;;;;;;;;0.00;0.00;;;;;;;;5066102;28;8888;-84
2022/02/14 13:32:10;;;;;;;;;0.00;0.00;;;;;;;;5053415;28;8832;-83
2022/02/14 13:34:49;;;;;;;;;0.00;0.00;;;;;;;;5065665;28;8872;-84
2022/02/14 13:37:18;;;;;;;;;0.00;0.00;;;;;;;;5051627;28;8899;-83
2022/02/14 13:39:45;;;;;;;;;0.00;0.00;;;;;;;;5069499;28;8868;-84
2022/02/14 13:42:19;;;;;;;;;0.00;0.00;;;;;;;;5064455;28;8911;-84
2022/02/14 13:44:56;;;;;;;;;0.00;0.00;;;;;;;;5067692;28;8966;-86
2022/02/14 13:47:24;;;;;;;;;0.00;0.00;;;;;;;;5064897;28;8866;-85
2022/02/14 13:49:54;;;;;;;;;0.75;0.00;;;;;;;;5066853;28;8876;-84
2022/02/14 13:52:24;;;;;;;;;1.50;0.00;;;;;;;;5064810;28;8864;-84
2022/02/14 13:55:04;;;;;;;;;1.50;0.00;;;;;;;;5052810;28;8874;-84
2022/02/14 13:57:32;;;;;;;;;2.00;0.00;;;;;;;;5066688;28;8878;-84
2022/02/14 13:59:59;;;;;;;;;0.50;0.00;;;;;;;;5064159;28;8861;-84
2022/02/14 14:02:27;;;;;;;;;0.00;0.00;;;;;;;;5046606;28;8813;-84
2022/02/14 14:05:18;;;;;;;;;0.75;0.00;;;;;;;;5064974;28;8888;-84
2022/02/14 14:07:46;;;;;;;;;2.25;0.00;;;;;;;;5065840;28;8880;-84
2022/02/14 14:10:14;;;;;;;;;0.00;0.00;;;;;;;;5065725;28;8864;-85
2022/02/14 14:12:48;;;;;;;;;1.00;0.75;;;;;;;;5065355;28;8864;-83
2022/02/14 14:15:16;;;;;;;;;0.00;0.00;;;;;;;;5064881;28;8856;-85
2022/02/14 14:17:44;;;;;;;;;1.25;0.00;;;;;;;;5053217;28;8864;-84
2022/02/14 14:20:13;;;;;;;;;0.00;0.00;;;;;;;;5066066;28;8999;-85
2022/02/14 14:22:44;;;;;;;;;0.00;0.00;;;;;;;;5064946;28;8875;-84
2022/02/14 14:25:12;;;;;;;;;0.75;0.00;;;;;;;;5051643;28;8884;-84
2022/02/14 14:27:39;;;;;;;;;0.00;0.00;;;;;;;;5047404;28;8921;-84
2022/02/14 14:30:08;;;;;;;;;0.00;0.00;;;;;;;;5071628;28;8844;-84
2022/02/14 14:32:35;;;;;;;;;0.00;0.00;;;;;;;;5066274;28;8852;-84
2022/02/14 14:37:46;;;;;;;;;1.50;0.00;;;;;;;;5037216;28;8910;-84
2022/02/14 14:40:15;;;;;;;;;0.00;0.00;;;;;;;;5064491;28;8884;-84
2022/02/14 14:42:43;;;;;;;;;0.00;0.00;;;;;;;;5064896;28;8868;-86
2022/02/14 14:45:10;;;;;;;;;0.00;0.00;;;;;;;;5063814;28;8891;-83
2022/02/14 14:47:38;;;;;;;;;0.00;0.00;;;;;;;;5063403;28;8887;-84
2022/02/14 14:50:06;;;;;;;;;0.25;0.25;;;;;;;;5064380;28;8875;-84
2022/02/14 14:52:34;;;;;;;;;0.00;0.00;;;;;;;;5046025;28;8910;-84
2022/02/14 14:55:04;;;;;;;;;1.50;0.00;;;;;;;;5057336;28;8907;-85
2022/02/14 14:57:31;;;;;;;;;0.25;0.25;;;;;;;;5056838;28;8981;-80
2022/02/14 14:59:58;;;;;;;;;0.00;0.00;;;;;;;;5062564;28;8852;-81
2022/02/14 15:02:26;;;;;;;;;0.25;0.25;;;;;;;;5062901;28;8832;-80
2022/02/14 15:04:55;;;;;;;;;0.00;0.00;;;;;;;;5053695;28;8888;-78
2022/02/14 15:07:23;;;;;;;;;0.00;0.00;;;;;;;;5058264;28;9649;-78
2022/02/14 15:09:51;;;;;;;;;0.00;0.00;;;;;;;;5059500;28;8864;-77
2022/02/14 15:12:20;;;;;;;;;2.00;0.00;;;;;;;;5060210;28;8878;-77
2022/02/14 15:14:48;;;;;;;;;0.00;0.00;;;;;;;;5052818;28;8864;-77